Industrial, Minnesota
Current Conditions -  °F | °C
As of 11:55 PM on Thursday 30 Oct 2014 (Local Time) from KDLH Reporting Station
Few Clouds Few Clouds  
Wind Chill: 15°   Ceiling: Unl
Heat Index: 28°   Visibility: 10mi
Dew Point: 17°   Wind: 21mph
Humidity: 63%   Direction: 340°NNW
Pressure: 30.31"   Gusts: 32mph
Location:  46.8859°N, 92.4258°W
Report Text: KDLH 310455Z 34018G28KT 10SM FEW029 M02/M08 A3031 RMK AO2 PK WND 35030/0356 SLP284 T10221083 $
Loading
Personal Weather Stations






























Interactive Weather Map
Tropical Storm Tracking
New forecast layout! Learn more

10-Day Weather Forecast

Advertisements
Track Severe Weather on mobile